Time;durP1;ratioP1;P1;durP2;ratioP2;P2;SDS_P1;SDS_P2;PMS_P1;PMS_P2;Temp;Humidity;BMP_temperature;BMP_pressure;BME280_temperature;BME280_humidity;BME280_pressure;Samples;Min_cycle;Max_cycle;Signal;HPM_P1;HPM_P2
2022/12/10 00:01:34;;;;;;;27.25;13.25;;;;;;;2.89;79.43;98838.78;4980412;28;20057;-86
2022/12/10 00:04:03;;;;;;;29.80;13.25;;;;;;;2.89;78.88;98837.97;4984485;28;20486;-85
2022/12/10 00:06:32;;;;;;;27.55;14.13;;;;;;;2.85;79.35;98832.13;4999628;28;20054;-86
2022/12/10 00:08:59;;;;;;;26.33;14.13;;;;;;;2.84;79.11;98833.03;4965338;28;20057;-85
2022/12/10 00:11:27;;;;;;;24.88;12.98;;;;;;;2.81;79.30;98834.09;4965743;28;20509;-86
2022/12/10 00:13:54;;;;;;;27.40;14.30;;;;;;;2.82;79.09;98834.94;4983290;28;20108;-86
2022/12/10 00:16:23;;;;;;;27.27;14.23;;;;;;;2.81;79.24;98836.72;5001356;28;20556;-86
2022/12/10 00:18:51;;;;;;;26.40;12.95;;;;;;;2.86;79.11;98825.91;4967065;28;20767;-86
2022/12/10 00:21:25;;;;;;;23.65;12.27;;;;;;;2.85;78.75;98831.25;4984677;28;20050;-86
2022/12/10 00:23:52;;;;;;;28.42;12.75;;;;;;;2.87;79.48;98827.56;4958746;28;20038;-86
2022/12/10 00:26:27;;;;;;;28.83;13.32;;;;;;;2.86;78.96;98835.56;4982442;28;20387;-85
2022/12/10 00:28:55;;;;;;;30.85;12.95;;;;;;;2.86;79.46;98832.94;4969279;28;20442;-86
2022/12/10 00:31:27;;;;;;;24.98;11.48;;;;;;;2.83;79.81;98841.88;4965560;28;20533;-86
2022/12/10 00:33:56;;;;;;;27.30;13.02;;;;;;;2.88;79.38;98839.75;4958142;28;20043;-86
2022/12/10 00:36:31;;;;;;;25.25;12.05;;;;;;;2.82;79.25;98841.03;4946320;28;20525;-85
2022/12/10 00:38:58;;;;;;;27.73;12.63;;;;;;;2.82;79.28;98841.03;4948609;28;20061;-86
2022/12/10 00:41:27;;;;;;;24.20;12.43;;;;;;;2.79;78.50;98841.22;4951268;28;20129;-86
2022/12/10 00:43:54;;;;;;;22.63;10.60;;;;;;;2.82;78.90;98837.56;4982852;28;20068;-86
2022/12/10 00:46:21;;;;;;;25.85;12.63;;;;;;;2.83;78.79;98832.22;4983258;28;20042;-85
2022/12/10 00:48:48;;;;;;;26.15;12.80;;;;;;;2.82;78.66;98843.66;4997044;28;20054;-85
2022/12/10 00:51:17;;;;;;;27.38;12.43;;;;;;;2.85;78.64;98841.75;4960519;28;20046;-86
2022/12/10 00:53:45;;;;;;;22.45;12.00;;;;;;;2.87;78.60;98845.91;4966748;28;20066;-85
2022/12/10 00:56:14;;;;;;;25.30;12.32;;;;;;;2.86;78.28;98860.00;4982464;28;20092;-84
2022/12/10 00:58:41;;;;;;;20.60;11.95;;;;;;;2.85;78.27;98860.94;4983384;28;20600;-85
2022/12/10 01:01:12;;;;;;;23.27;12.48;;;;;;;2.86;78.26;98856.53;4978236;28;20654;-85
2022/12/10 01:03:39;;;;;;;27.27;11.95;;;;;;;2.87;78.21;98861.66;4967316;28;20433;-85
2022/12/10 01:06:33;;;;;;;24.92;12.70;;;;;;;2.78;77.90;98855.31;4949408;28;20154;-85
2022/12/10 01:09:04;;;;;;;22.65;12.15;;;;;;;2.79;78.46;98856.97;4936304;28;20065;-86
2022/12/10 01:11:34;;;;;;;22.08;11.50;;;;;;;2.79;78.76;98859.59;4959443;28;20043;-85
2022/12/10 01:14:01;;;;;;;25.05;12.32;;;;;;;2.77;79.16;98858.88;4930658;28;20101;-86
2022/12/10 01:16:27;;;;;;;22.70;11.75;;;;;;;2.78;78.81;98859.72;4952169;28;20383;-86
2022/12/10 01:18:56;;;;;;;28.02;12.48;;;;;;;2.79;78.74;98870.06;4966244;28;20042;-84
2022/12/10 01:21:23;;;;;;;28.33;12.77;;;;;;;2.78;78.97;98871.03;4981538;28;20125;-84
2022/12/10 01:23:51;;;;;;;22.42;11.73;;;;;;;2.82;79.30;98874.25;4959438;28;20039;-85
2022/12/10 01:26:23;;;;;;;20.35;10.75;;;;;;;2.82;79.65;98877.75;4964139;28;20527;-85
2022/12/10 01:28:51;;;;;;;21.10;11.63;;;;;;;2.83;79.68;98878.56;4978521;28;20043;-84
2022/12/10 01:31:21;;;;;;;24.25;10.93;;;;;;;2.82;79.10;98882.97;4982683;28;20473;-85
2022/12/10 01:33:48;;;;;;;25.50;12.68;;;;;;;2.79;79.46;98887.59;4974357;28;20046;-85
2022/12/10 01:36:25;;;;;;;22.15;11.57;;;;;;;2.78;79.52;98878.91;4953368;28;20427;-84
2022/12/10 01:38:52;;;;;;;26.98;12.00;;;;;;;2.77;79.77;98879.84;4980280;28;20047;-85
2022/12/10 01:41:22;;;;;;;22.90;11.43;;;;;;;2.75;80.37;98876.50;4970804;28;20042;-85
2022/12/10 01:44:01;;;;;;;24.27;12.40;;;;;;;2.78;79.64;98875.44;4965019;28;20498;-84
2022/12/10 01:46:30;;;;;;;25.13;11.27;;;;;;;2.79;78.89;98874.47;4993517;28;20046;-84
2022/12/10 01:48:58;;;;;;;25.60;12.10;;;;;;;2.79;78.93;98882.34;4969361;28;20076;-84
2022/12/10 01:51:29;;;;;;;21.58;11.07;;;;;;;2.76;78.53;98880.78;4999080;28;20494;-86
2022/12/10 01:53:56;;;;;;;24.45;11.07;;;;;;;2.76;78.91;98883.41;4966763;28;20059;-86
2022/12/10 01:56:23;;;;;;;21.52;11.77;;;;;;;2.79;78.93;98883.19;4959452;28;20097;-85
2022/12/10 01:58:54;;;;;;;22.08;11.45;;;;;;;2.78;78.56;98892.00;4967545;28;20050;-85
2022/12/10 02:01:38;;;;;;;19.13;11.00;;;;;;;2.77;79.19;98899.97;4981752;28;20046;-85
2022/12/10 02:04:29;;;;;;;21.25;10.68;;;;;;;2.74;79.32;98900.19;4974896;28;20046;-85
2022/12/10 02:07:09;;;;;;;21.65;11.70;;;;;;;2.79;79.69;98903.31;4949286;28;20520;-85
2022/12/10 02:09:44;;;;;;;24.00;9.90;;;;;;;2.82;79.80;98909.19;4948335;28;20042;-86
2022/12/10 02:12:37;;;;;;;24.75;11.18;;;;;;;2.77;79.19;98910.44;4973267;28;20075;-84
2022/12/10 02:15:11;;;;;;;22.10;10.57;;;;;;;2.77;78.99;98913.94;4941539;28;20098;-85
2022/12/10 02:17:51;;;;;;;22.20;10.55;;;;;;;2.74;79.75;98910.69;4971294;28;20794;-85
2022/12/10 02:20:47;;;;;;;18.45;10.23;;;;;;;2.71;80.11;98910.91;4963961;28;20049;-85
2022/12/10 02:23:21;;;;;;;23.95;10.30;;;;;;;2.77;79.69;98908.69;4895683;28;20054;-85
2022/12/10 02:26:12;;;;;;;21.88;11.45;;;;;;;2.70;79.70;98910.06;4963488;28;20066;-86
2022/12/10 02:29:30;;;;;;;24.95;11.25;;;;;;;2.74;79.34;98903.63;4949694;28;20062;-85
2022/12/10 02:32:04;;;;;;;18.30;10.25;;;;;;;2.76;78.69;98896.50;4905436;28;20112;-85
2022/12/10 02:34:36;;;;;;;26.00;12.23;;;;;;;2.76;78.19;98893.91;4949172;28;20051;-84
2022/12/10 02:37:19;;;;;;;22.60;11.70;;;;;;;2.78;78.04;98891.16;4986452;28;20070;-84
2022/12/10 02:39:53;;;;;;;22.55;11.65;;;;;;;2.80;78.37;98892.75;4935534;28;20046;-85
2022/12/10 02:42:22;;;;;;;20.60;10.77;;;;;;;2.79;78.05;98884.97;4969400;28;20046;-86
2022/12/10 02:44:49;;;;;;;25.20;11.77;;;;;;;2.80;78.30;98889.28;4950926;28;20101;-86
2022/12/10 02:47:20;;;;;;;25.20;11.98;;;;;;;2.76;78.63;98891.28;4959046;28;20969;-86
2022/12/10 02:49:50;;;;;;;22.65;11.15;;;;;;;2.74;78.68;98887.09;4979988;28;20066;-85
2022/12/10 02:52:18;;;;;;;21.88;11.73;;;;;;;2.76;78.62;98888.66;4980778;28;20051;-85
2022/12/10 02:54:49;;;;;;;23.27;13.52;;;;;;;2.75;78.85;98886.16;4963025;28;20050;-85
2022/12/10 02:57:41;;;;;;;24.55;10.18;;;;;;;2.71;80.01;98888.13;4944803;28;20047;-85
2022/12/10 03:00:12;;;;;;;20.35;11.15;;;;;;;2.70;80.54;98881.22;4964374;28;20130;-85
2022/12/10 03:03:12;;;;;;;22.98;11.32;;;;;;;2.61;81.62;98879.25;4980984;28;20043;-85
2022/12/10 03:06:15;;;;;;;18.23;9.40;;;;;;;2.64;81.29;98876.41;4916923;28;20493;-85
2022/12/10 03:08:51;;;;;;;18.58;9.98;;;;;;;2.64;81.67;98879.03;4952680;28;20141;-86
2022/12/10 03:11:21;;;;;;;16.92;9.48;;;;;;;2.65;81.75;98877.28;4951090;28;20578;-85
2022/12/10 03:13:53;;;;;;;20.00;9.77;;;;;;;2.67;81.39;98876.22;4981286;28;20461;-86
2022/12/10 03:16:21;;;;;;;19.75;10.15;;;;;;;2.64;81.48;98880.81;4948151;28;20050;-85
2022/12/10 03:18:52;;;;;;;21.38;11.27;;;;;;;2.62;81.11;98880.94;4934531;28;20227;-85
2022/12/10 03:21:19;;;;;;;23.25;11.20;;;;;;;2.66;81.05;98871.91;4951215;28;20049;-86
2022/12/10 03:23:46;;;;;;;19.08;11.02;;;;;;;2.70;80.77;98883.84;4970428;28;20039;-85
2022/12/10 03:26:14;;;;;;;22.80;11.57;;;;;;;2.69;80.37;98879.53;4940552;28;20071;-85
2022/12/10 03:28:46;;;;;;;22.80;12.25;;;;;;;2.67;80.72;98875.34;4952647;28;20047;-86
2022/12/10 03:31:14;;;;;;;25.75;11.45;;;;;;;2.69;80.73;98870.84;4933032;28;20043;-85
2022/12/10 03:33:41;;;;;;;25.88;11.57;;;;;;;2.72;80.34;98875.88;4961211;28;20062;-84
2022/12/10 03:36:08;;;;;;;24.25;11.65;;;;;;;2.74;80.27;98874.81;4949188;28;20046;-85
2022/12/10 03:38:36;;;;;;;23.98;12.70;;;;;;;2.67;80.16;98867.50;4966226;28;20042;-86
2022/12/10 03:41:03;;;;;;;22.17;10.95;;;;;;;2.70;80.11;98870.75;4967678;28;20046;-85
2022/12/10 03:43:29;;;;;;;21.25;9.93;;;;;;;2.73;79.99;98869.69;4982546;28;20078;-85
2022/12/10 03:45:56;;;;;;;22.52;11.20;;;;;;;2.70;79.52;98862.88;5014421;28;20054;-85
2022/12/10 03:48:23;;;;;;;21.23;11.68;;;;;;;2.68;79.69;98862.16;4992822;28;20078;-85
2022/12/10 03:50:50;;;;;;;22.48;11.18;;;;;;;2.71;79.55;98867.16;4964947;28;20042;-85
2022/12/10 03:53:17;;;;;;;25.40;12.82;;;;;;;2.68;79.50;98856.91;4965633;28;20062;-86
2022/12/10 03:55:44;;;;;;;28.33;13.38;;;;;;;2.67;79.52;98862.25;4984704;28;20049;-84
2022/12/10 03:58:11;;;;;;;23.30;12.38;;;;;;;2.67;78.77;98857.88;4977026;28;20046;-86
2022/12/10 04:00:45;;;;;;;22.75;11.27;;;;;;;2.65;79.14;98865.00;4982156;28;20429;-85
2022/12/10 04:03:12;;;;;;;24.13;11.30;;;;;;;2.68;78.97;98862.16;4976276;28;20050;-85
2022/12/10 04:05:39;;;;;;;22.50;10.95;;;;;;;2.68;79.49;98880.50;4952678;28;20441;-85
2022/12/10 04:08:05;;;;;;;19.38;10.23;;;;;;;2.68;79.48;98874.44;4971596;28;20046;-85
2022/12/10 04:10:36;;;;;;;22.15;10.85;;;;;;;2.65;79.61;98880.72;4970380;28;20482;-85
2022/12/10 04:18:34;;;;;;;19.67;10.20;;;;;;;2.65;80.78;98887.75;4967790;28;20477;-85
2022/12/10 04:29:19;;;;;;;23.42;12.18;;;;;;;2.62;80.34;98886.19;4939416;28;20055;-85
2022/12/10 04:31:45;;;;;;;21.73;11.27;;;;;;;2.62;79.75;98886.19;4967931;28;20476;-85
2022/12/10 04:34:12;;;;;;;19.98;11.38;;;;;;;2.59;80.27;98884.59;4952674;28;20513;-85
2022/12/10 04:36:39;;;;;;;22.23;10.80;;;;;;;2.61;80.40;98881.88;4943337;28;20134;-84
2022/12/10 04:39:06;;;;;;;26.05;10.80;;;;;;;2.60;80.73;98882.84;5012849;28;20046;-85
2022/12/10 04:41:33;;;;;;;24.52;11.60;;;;;;;2.64;80.86;98893.94;4983598;28;20042;-85
2022/12/10 04:43:59;;;;;;;23.05;11.68;;;;;;;2.60;80.96;98895.94;4963415;28;20051;-84
2022/12/10 04:46:27;;;;;;;23.17;10.98;;;;;;;2.61;80.53;98894.97;4998946;28;20038;-85
2022/12/10 04:48:54;;;;;;;26.10;11.23;;;;;;;2.60;80.67;98890.69;4969473;28;20472;-86
2022/12/10 04:51:21;;;;;;;24.33;11.30;;;;;;;2.64;80.25;98891.31;4978698;28;20051;-84
2022/12/10 04:53:47;;;;;;;21.73;12.10;;;;;;;2.56;79.22;98895.31;4997578;28;20453;-85
2022/12/10 04:56:14;;;;;;;25.17;12.07;;;;;;;2.61;79.18;98900.22;4998500;28;20046;-85
2022/12/10 04:58:41;;;;;;;23.88;11.32;;;;;;;2.61;79.48;98894.97;4984988;28;20180;-85
2022/12/10 05:01:09;;;;;;;27.10;12.27;;;;;;;2.56;80.93;98902.34;4967073;28;20405;-86
2022/12/10 05:03:36;;;;;;;26.75;11.05;;;;;;;2.51;81.37;98902.66;4985810;28;20050;-85
2022/12/10 05:06:05;;;;;;;23.63;11.07;;;;;;;2.47;81.64;98900.34;4994177;28;20062;-85
2022/12/10 05:08:32;;;;;;;21.92;11.23;;;;;;;2.49;81.90;98903.69;4952632;28;20054;-85
2022/12/10 05:11:07;;;;;;;24.45;11.45;;;;;;;2.43;82.17;98907.59;4997181;28;20081;-85
2022/12/10 05:13:34;;;;;;;23.02;11.98;;;;;;;2.45;82.14;98904.88;4932718;28;20047;-85
2022/12/10 05:16:03;;;;;;;21.83;11.40;;;;;;;2.49;81.72;98906.31;4964792;28;20051;-85
2022/12/10 05:18:30;;;;;;;24.85;11.75;;;;;;;2.48;81.85;98923.84;4979648;28;20077;-85
2022/12/10 05:21:09;;;;;;;26.05;11.57;;;;;;;2.49;81.74;98922.88;4962479;28;20050;-85
2022/12/10 05:23:38;;;;;;;20.63;11.05;;;;;;;2.51;81.70;98920.16;4958746;28;20046;-86
2022/12/10 05:26:07;;;;;;;27.20;11.73;;;;;;;2.52;81.54;98927.94;4933492;28;20722;-85
2022/12/10 05:28:42;;;;;;;22.02;11.52;;;;;;;2.49;81.93;98930.75;4948833;28;20054;-85
2022/12/10 05:31:17;;;;;;;24.50;11.77;;;;;;;2.52;81.85;98929.69;4960518;28;20043;-86
2022/12/10 05:33:44;;;;;;;24.90;11.80;;;;;;;2.53;81.85;98934.84;4977817;28;20180;-86
2022/12/10 05:36:13;;;;;;;25.63;12.25;;;;;;;2.52;81.79;98937.53;5014651;28;20540;-86
2022/12/10 05:38:40;;;;;;;29.90;11.43;;;;;;;2.51;81.93;98939.34;4988328;28;20038;-86
2022/12/10 05:41:12;;;;;;;24.80;12.02;;;;;;;2.51;81.96;98938.50;4980669;28;20409;-83
2022/12/10 05:43:39;;;;;;;20.88;10.38;;;;;;;2.50;82.33;98940.28;4981049;28;20491;-85
2022/12/10 05:46:10;;;;;;;24.92;11.05;;;;;;;2.52;82.09;98946.28;4984418;28;20101;-86
2022/12/10 05:48:37;;;;;;;20.42;11.18;;;;;;;2.55;82.00;98948.66;4975547;28;20054;-86
2022/12/10 05:51:13;;;;;;;23.35;11.30;;;;;;;2.51;82.10;98952.44;4996342;28;20046;-86
2022/12/10 05:53:40;;;;;;;22.88;11.20;;;;;;;2.56;81.38;98950.34;4946833;28;20065;-85
2022/12/10 05:56:25;;;;;;;24.48;13.05;;;;;;;2.51;79.35;98949.81;4949044;28;20053;-86
2022/12/10 05:58:57;;;;;;;24.25;12.25;;;;;;;2.57;79.75;98949.41;4949722;28;20100;-86
2022/12/10 06:01:26;;;;;;;24.60;11.63;;;;;;;2.55;79.77;98958.31;4982093;28;20494;-85
2022/12/10 06:03:53;;;;;;;25.70;12.30;;;;;;;2.58;80.10;98947.63;4952155;28;20042;-86
2022/12/10 06:06:25;;;;;;;30.20;13.00;;;;;;;2.52;79.93;98950.66;4972445;28;20067;-83
2022/12/10 06:08:52;;;;;;;26.00;12.93;;;;;;;2.57;80.03;98953.78;4962147;28;20200;-86
2022/12/10 06:11:19;;;;;;;25.85;13.88;;;;;;;2.59;79.58;98957.97;4970914;28;20057;-86
2022/12/10 06:13:46;;;;;;;26.13;12.60;;;;;;;2.58;79.24;98960.72;4983575;28;20042;-85
2022/12/10 06:16:20;;;;;;;26.33;11.98;;;;;;;2.57;79.64;98959.03;4961202;28;20097;-84
2022/12/10 06:18:47;;;;;;;24.00;11.68;;;;;;;2.55;79.45;98958.31;4990764;28;20042;-85
2022/12/10 06:21:16;;;;;;;26.85;12.77;;;;;;;2.57;79.66;98959.91;4966410;28;20046;-85
2022/12/10 06:23:44;;;;;;;25.90;13.02;;;;;;;2.58;79.53;98966.78;4978622;28;20088;-84
2022/12/10 06:26:15;;;;;;;21.95;11.30;;;;;;;2.50;80.80;98956.00;4993430;28;20039;-85
2022/12/10 06:28:44;;;;;;;28.75;12.25;;;;;;;2.49;81.46;98962.19;4970007;28;20051;-85
2022/12/10 06:31:11;;;;;;;25.95;11.95;;;;;;;2.49;81.79;98969.22;4962510;28;20057;-87
2022/12/10 06:33:39;;;;;;;25.25;13.57;;;;;;;2.47;81.96;98971.97;4966250;28;20050;-85
2022/12/10 06:36:08;;;;;;;23.65;11.27;;;;;;;2.50;81.57;98976.16;4997540;28;20050;-86
2022/12/10 06:38:35;;;;;;;26.02;12.63;;;;;;;2.49;81.63;98977.06;4982969;28;20051;-84
2022/12/10 06:41:07;;;;;;;26.67;11.82;;;;;;;2.50;81.40;98979.59;4999888;28;20038;-85
2022/12/10 06:43:34;;;;;;;24.52;12.63;;;;;;;2.50;81.80;98966.50;4946221;28;20047;-85
2022/12/10 06:46:09;;;;;;;23.95;11.90;;;;;;;2.48;81.31;98978.84;4962735;28;20051;-85
2022/12/10 06:48:36;;;;;;;23.52;10.75;;;;;;;2.48;81.15;98980.66;4934695;28;20058;-84
2022/12/10 06:51:04;;;;;;;23.33;11.70;;;;;;;2.49;81.34;98980.53;4966703;28;20050;-85
2022/12/10 06:53:32;;;;;;;22.10;11.43;;;;;;;2.46;81.25;98980.75;4963375;28;20053;-85
2022/12/10 06:56:00;;;;;;;19.83;10.27;;;;;;;2.46;81.72;98985.16;4968332;28;20041;-85
2022/12/10 06:58:31;;;;;;;23.48;11.98;;;;;;;2.45;81.20;98986.09;5000610;28;20490;-85
2022/12/10 07:01:20;;;;;;;29.08;12.50;;;;;;;2.39;79.23;98987.34;4982570;28;20042;-85
2022/12/10 07:03:55;;;;;;;26.85;12.48;;;;;;;2.48;79.42;98996.38;4938204;28;20147;-85
2022/12/10 07:06:23;;;;;;;25.20;11.85;;;;;;;2.49;79.98;98993.63;4916885;28;20050;-85
2022/12/10 07:08:50;;;;;;;26.52;12.57;;;;;;;2.48;79.46;98994.59;4962751;28;20502;-83
2022/12/10 07:11:19;;;;;;;21.77;11.52;;;;;;;2.55;78.77;98989.78;4967301;28;20430;-84
2022/12/10 07:13:46;;;;;;;22.20;10.98;;;;;;;2.52;78.63;98989.97;4968895;28;20074;-84
2022/12/10 07:16:14;;;;;;;24.52;11.98;;;;;;;2.53;78.43;98982.00;4982089;28;20429;-84
2022/12/10 07:18:42;;;;;;;22.88;11.65;;;;;;;2.50;79.05;98982.22;4938424;28;20061;-84
2022/12/10 07:21:34;;;;;;;23.90;10.90;;;;;;;2.48;79.57;98985.88;4953014;28;20428;-84
2022/12/10 07:24:04;;;;;;;22.33;11.55;;;;;;;2.49;79.21;98982.31;4960901;28;20478;-82
2022/12/10 07:26:33;;;;;;;23.85;11.38;;;;;;;2.48;79.00;98988.50;4999328;28;20491;-83
2022/12/10 07:28:59;;;;;;;24.17;12.25;;;;;;;2.43;79.17;98991.44;4965999;28;20101;-84
2022/12/10 07:31:26;;;;;;;25.10;11.95;;;;;;;2.46;79.50;98988.59;4969253;28;20066;-83
2022/12/10 07:33:54;;;;;;;23.30;11.38;;;;;;;2.44;79.65;98990.47;4967437;28;20043;-83
2022/12/10 07:36:24;;;;;;;25.83;12.20;;;;;;;2.45;79.72;98996.59;4985959;28;20042;-84
2022/12/10 07:38:52;;;;;;;27.85;12.90;;;;;;;2.43;79.66;98995.84;4999616;28;20056;-85
2022/12/10 07:41:20;;;;;;;25.27;12.23;;;;;;;2.43;79.81;98998.47;5000659;28;20457;-86
2022/12/10 07:43:47;;;;;;;27.52;12.00;;;;;;;2.43;80.62;98995.84;4981637;28;20409;-85
2022/12/10 07:46:19;;;;;;;25.10;11.75;;;;;;;2.38;80.95;99004.84;4980876;28;20165;-84
2022/12/10 07:48:47;;;;;;;22.35;11.60;;;;;;;2.38;81.52;99020.56;4981117;28;20042;-85
2022/12/10 07:51:16;;;;;;;25.08;11.63;;;;;;;2.39;81.09;99017.03;4985765;28;20306;-85
2022/12/10 07:53:43;;;;;;;24.60;11.88;;;;;;;2.41;80.84;99018.69;4936792;28;20043;-85
2022/12/10 07:56:11;;;;;;;25.00;11.98;;;;;;;2.44;81.53;99019.31;4949013;28;20093;-85
2022/12/10 07:58:42;;;;;;;25.35;11.65;;;;;;;2.46;81.52;99017.44;4962511;28;20523;-85
2022/12/10 08:01:11;;;;;;;24.30;11.93;;;;;;;2.47;81.25;99016.50;4948718;28;20158;-84
2022/12/10 08:03:38;;;;;;;23.95;12.23;;;;;;;2.50;80.72;99018.91;4932848;28;20049;-84
2022/12/10 08:06:13;;;;;;;26.10;13.15;;;;;;;2.45;81.00;99028.03;4971342;28;20514;-85
2022/12/10 08:08:40;;;;;;;25.92;12.48;;;;;;;2.50;80.15;99033.78;4982298;28;20062;-85
2022/12/10 08:11:07;;;;;;;22.92;11.90;;;;;;;2.52;79.87;99031.88;4985296;28;20046;-85
2022/12/10 08:13:35;;;;;;;22.30;12.18;;;;;;;2.54;80.55;99035.25;4963230;28;20081;-86
2022/12/10 08:16:13;;;;;;;25.80;12.23;;;;;;;2.57;81.06;99040.28;4968233;28;20042;-85
2022/12/10 08:18:40;;;;;;;29.13;14.02;;;;;;;2.53;81.33;99039.66;4962547;28;20050;-85
2022/12/10 08:21:09;;;;;;;25.23;13.10;;;;;;;2.59;80.20;99038.41;4968414;28;20053;-85
2022/12/10 08:23:36;;;;;;;34.42;12.95;;;;;;;2.58;79.66;99040.19;4967008;28;20074;-84
2022/12/10 08:26:07;;;;;;;27.83;14.02;;;;;;;2.61;79.38;99041.75;4975980;28;20060;-84
2022/12/10 08:28:34;;;;;;;25.40;12.75;;;;;;;2.64;79.24;99032.84;4998893;28;20050;-86
2022/12/10 08:31:02;;;;;;;28.08;14.00;;;;;;;2.60;79.18;99037.47;4966000;28;20050;-85
2022/12/10 08:33:29;;;;;;;26.98;13.68;;;;;;;2.63;78.96;99036.41;4978776;28;20486;-84
2022/12/10 08:36:01;;;;;;;25.27;14.10;;;;;;;2.63;78.82;99042.50;5000415;28;20512;-85
2022/12/10 08:38:29;;;;;;;28.60;14.20;;;;;;;2.63;79.13;99034.63;4994854;28;20435;-85
2022/12/10 08:40:56;;;;;;;29.20;13.63;;;;;;;2.66;78.82;99050.13;4952704;28;20046;-87
2022/12/10 08:43:24;;;;;;;31.95;14.10;;;;;;;2.66;78.76;99042.28;4982233;28;20045;-88
2022/12/10 08:45:50;;;;;;;26.60;13.10;;;;;;;2.67;78.90;99046.59;4966803;28;20092;-88
2022/12/10 08:48:17;;;;;;;25.77;14.45;;;;;;;2.68;78.72;99043.03;4966119;28;20053;-84
2022/12/10 08:50:45;;;;;;;26.30;13.02;;;;;;;2.68;78.67;99052.66;4998670;28;20092;-86
2022/12/10 08:53:11;;;;;;;26.02;13.30;;;;;;;2.74;78.73;99050.44;4981166;28;20051;-85
2022/12/10 08:55:39;;;;;;;29.60;15.27;;;;;;;2.73;78.95;99055.81;4969609;28;20046;-86
2022/12/10 08:58:13;;;;;;;30.45;14.90;;;;;;;2.73;78.70;99053.19;4977247;28;20058;-87
2022/12/10 09:00:42;;;;;;;28.65;14.38;;;;;;;2.75;78.79;99056.56;4912118;28;20047;-84
2022/12/10 09:03:09;;;;;;;27.83;13.52;;;;;;;2.71;78.83;99058.53;4915743;28;20407;-84
2022/12/10 09:05:36;;;;;;;28.20;14.05;;;;;;;2.75;78.23;99056.56;4944803;28;20051;-84
2022/12/10 09:08:02;;;;;;;30.88;14.75;;;;;;;2.73;77.83;99046.16;4945112;28;20061;-84
2022/12/10 09:10:29;;;;;;;30.90;15.10;;;;;;;2.66;78.15;99051.94;4946886;28;20463;-85
2022/12/10 09:12:56;;;;;;;29.55;14.77;;;;;;;2.68;78.54;99053.50;4929551;28;20042;-85
2022/12/10 09:15:29;;;;;;;30.37;15.00;;;;;;;2.69;78.22;99049.94;4952254;28;20443;-85
2022/12/10 09:17:56;;;;;;;33.72;16.30;;;;;;;2.61;78.34;99053.06;4949949;28;20577;-85
2022/12/10 09:20:23;;;;;;;31.25;15.65;;;;;;;2.63;78.38;99055.59;4955129;28;20137;-85
2022/12/10 09:22:50;;;;;;;31.48;14.77;;;;;;;2.68;78.26;99057.91;4995456;28;20101;-85
2022/12/10 09:25:16;;;;;;;30.25;14.55;;;;;;;2.67;78.40;99058.84;4992528;28;20046;-85
2022/12/10 09:27:43;;;;;;;29.98;14.65;;;;;;;2.67;78.22;99066.69;4963531;28;20371;-86
2022/12/10 09:30:11;;;;;;;30.20;15.13;;;;;;;2.68;78.50;99076.25;4982790;28;20050;-85
2022/12/10 09:32:38;;;;;;;30.35;14.50;;;;;;;2.66;78.06;99076.34;4979605;28;20058;-85
2022/12/10 09:35:06;;;;;;;31.45;15.50;;;;;;;2.67;78.21;99072.81;4985697;28;20100;-85
2022/12/10 09:37:32;;;;;;;30.75;13.55;;;;;;;2.67;77.99;99077.19;4967024;28;20046;-85
2022/12/10 09:39:59;;;;;;;30.50;14.27;;;;;;;2.67;78.02;99085.03;4981710;28;20046;-85
2022/12/10 09:42:52;;;;;;;28.70;14.27;;;;;;;2.59;76.89;99081.16;4984195;28;20077;-85
2022/12/10 09:45:26;;;;;;;29.70;14.32;;;;;;;2.69;77.25;99080.53;4940647;28;20102;-85
2022/12/10 09:48:12;;;;;;;36.08;15.57;;;;;;;2.64;77.50;99067.75;4970595;28;20100;-85
2022/12/10 09:50:57;;;;;;;34.17;16.08;;;;;;;2.67;77.71;99074.56;4997773;28;20050;-85
2022/12/10 09:53:28;;;;;;;37.83;16.60;;;;;;;2.72;77.97;99081.19;4927018;28;20051;-85
2022/12/10 09:55:55;;;;;;;31.27;15.23;;;;;;;2.74;77.77;99073.22;4968018;28;20438;-85
2022/12/10 09:58:24;;;;;;;30.30;14.35;;;;;;;2.76;77.76;99071.31;4966679;28;20501;-85
2022/12/10 10:00:57;;;;;;;;;;;;;;;2.66;77.72;99078.13;4982715;28;20406;-84
2022/12/10 10:03:24;;;;;;;28.17;13.90;;;;;;;2.77;77.84;99073.00;4999412;28;19923;-85
2022/12/10 10:05:53;;;;;;;30.45;14.63;;;;;;;2.81;78.01;99069.22;5000309;28;20042;-85
2022/12/10 10:08:32;;;;;;;27.42;13.57;;;;;;;2.82;77.52;99073.50;4984706;28;20038;-84
2022/12/10 10:11:00;;;;;;;30.85;14.45;;;;;;;2.85;77.85;99070.72;4997715;28;20050;-85
2022/12/10 10:13:40;;;;;;;26.40;14.13;;;;;;;2.87;77.37;99081.06;4970051;28;20050;-84
2022/12/10 10:16:22;;;;;;;33.55;15.57;;;;;;;2.82;77.19;99079.63;4982692;28;20046;-84
2022/12/10 10:18:59;;;;;;;33.45;15.57;;;;;;;2.87;77.51;99075.81;4964712;28;20045;-84
2022/12/10 10:21:28;;;;;;;32.72;15.18;;;;;;;2.93;77.52;99085.91;4957047;28;20050;-84
2022/12/10 10:23:56;;;;;;;30.77;14.32;;;;;;;2.94;77.15;99085.78;4970526;28;20046;-84
2022/12/10 10:26:26;;;;;;;27.98;14.20;;;;;;;2.91;76.36;99074.69;4976576;28;20042;-84
2022/12/10 10:28:57;;;;;;;23.98;12.65;;;;;;;2.92;76.48;99078.97;4979164;28;20502;-84
2022/12/10 10:31:26;;;;;;;28.70;13.60;;;;;;;2.92;76.26;99081.59;4950354;28;20136;-84
2022/12/10 10:33:58;;;;;;;28.88;13.23;;;;;;;2.95;76.28;99087.47;4986368;28;20050;-84
2022/12/10 10:36:28;;;;;;;30.83;14.90;;;;;;;2.96;76.39;99083.91;4985850;28;20053;-84
2022/12/10 10:38:54;;;;;;;29.02;14.68;;;;;;;2.98;76.50;99084.63;4987475;28;20050;-84
2022/12/10 10:41:23;;;;;;;26.77;13.98;;;;;;;2.97;76.31;99095.22;4969861;28;20074;-84
2022/12/10 10:43:59;;;;;;;29.48;13.13;;;;;;;2.86;75.43;99093.34;4971405;28;20035;-84
2022/12/10 10:46:26;;;;;;;27.60;12.65;;;;;;;2.82;75.12;99087.50;4968195;28;20157;-84
2022/12/10 10:49:13;;;;;;;28.65;14.13;;;;;;;2.71;74.90;99089.16;4987045;28;20050;-84
2022/12/10 10:51:44;;;;;;;25.95;13.40;;;;;;;2.71;75.38;99091.78;4937457;28;20397;-84
2022/12/10 10:54:11;;;;;;;29.05;13.88;;;;;;;2.67;75.23;99085.91;4968793;28;20535;-83
2022/12/10 10:56:42;;;;;;;27.30;13.35;;;;;;;2.65;75.20;99093.03;4969898;28;20124;-84
2022/12/10 10:59:17;;;;;;;23.23;12.02;;;;;;;2.68;75.72;99090.19;4980688;28;20038;-84
2022/12/10 11:01:50;;;;;;;28.38;12.98;;;;;;;2.59;75.25;99093.44;4967483;28;20038;-84
2022/12/10 11:04:24;;;;;;;26.92;13.65;;;;;;;2.60;75.71;99095.13;4956797;28;20043;-84
2022/12/10 11:06:54;;;;;;;24.65;13.27;;;;;;;2.57;74.83;99096.19;4952139;28;20046;-84
2022/12/10 11:09:25;;;;;;;30.10;14.38;;;;;;;2.48;75.46;99096.78;4953236;28;20069;-83
2022/12/10 11:11:58;;;;;;;25.48;13.45;;;;;;;2.50;75.26;99099.31;5013345;28;20065;-83
2022/12/10 11:14:29;;;;;;;29.45;14.00;;;;;;;2.41;74.85;99103.38;5006855;28;20149;-83
2022/12/10 11:17:18;;;;;;;25.42;12.18;;;;;;;2.33;74.49;99103.03;4975033;28;20051;-83
2022/12/10 11:20:00;;;;;;;27.10;12.65;;;;;;;2.42;75.05;99112.94;4968006;28;20403;-84
2022/12/10 11:22:32;;;;;;;28.20;12.77;;;;;;;2.40;75.24;99104.31;4968086;28;20414;-84
2022/12/10 11:25:00;;;;;;;23.88;12.18;;;;;;;2.42;74.94;99117.31;4968748;28;20072;-85
2022/12/10 11:27:31;;;;;;;28.70;13.23;;;;;;;2.33;75.18;99121.38;4968612;28;20097;-84
2022/12/10 11:30:10;;;;;;;24.23;12.23;;;;;;;2.32;74.82;99119.72;4985417;28;20388;-87
2022/12/10 11:32:52;;;;;;;22.40;11.43;;;;;;;2.28;74.67;99113.81;4959071;28;20121;-85
2022/12/10 11:35:41;;;;;;;27.85;12.70;;;;;;;2.22;74.76;99122.09;4994856;28;20042;-85
2022/12/10 11:38:15;;;;;;;28.73;12.48;;;;;;;2.26;75.07;99120.09;4979379;28;20054;-84
2022/12/10 11:40:49;;;;;;;26.45;12.27;;;;;;;2.31;74.93;99112.78;4973642;28;20054;-84
2022/12/10 11:43:32;;;;;;;28.15;12.15;;;;;;;2.24;74.18;99111.50;4949817;28;20049;-85
2022/12/10 11:46:08;;;;;;;26.42;12.48;;;;;;;2.28;74.89;99108.56;4982233;28;20125;-85
2022/12/10 11:48:50;;;;;;;28.05;11.88;;;;;;;2.29;75.25;99120.75;4986567;28;20070;-83
2022/12/10 11:51:38;;;;;;;23.48;11.48;;;;;;;2.39;74.73;99116.59;4987071;28;20104;-84
2022/12/10 11:54:07;;;;;;;23.50;11.55;;;;;;;2.33;75.05;99116.97;4995054;28;20051;-85
2022/12/10 11:56:38;;;;;;;21.73;11.73;;;;;;;2.30;74.15;99114.56;5002898;28;20081;-84
2022/12/10 11:59:46;;;;;;;26.17;11.45;;;;;;;2.37;73.85;99112.38;4953082;28;20039;-86